Airfield :
LOGIN :

Register | Disclaimer

   EN    FR    IT 

 










Legend :    VFR   Marginal VFR   IFR   Intensive IFR   Very Intensive IFR
Visi :
Ceiling :
>= 8 km
>= 3000ft
5 to 8 km
1000 to 3000 ft
1500m to 5 km
500 to 1000 ft
800 to 1500m
200 to 500 ft
< 800m
< 200 ft
Symbols :   Thunderstorms  Fog  Heavy snow  Heavy precipitations  Wind > 20 kt
SIGMETs :     Misc.  Thunderstorms  Icing  Turbulence  Mountain Waves  Volcanic Ashes






- Airport Elevation : 15 ft
- IATA code : BHD


EGAC - George Best Belfast City

CURRENT METAR :
  • 040520Z AUTO 26006KT 230V310 9999 OVC042 13/08 Q1018

EXPIRED METARs :
  • 040450Z AUTO 26006KT 210V330 9999 -RA FEW023 SCT028 OVC034 12/09 Q1018
  • 040350Z AUTO 24007KT 210V280 9999 SCT039 SCT049 12/09 Q1017
  • 040320Z AUTO 26010KT 230V300 9999 -RA SCT018/// SCT024/// BKN032/// //////TCU 12/09 Q1017
  • 040250Z AUTO 23010G21KT 210V270 9999 FEW015 SCT020 BKN024 12/10 Q1017

Expired Forecast.
ATIS : +44 02890 935 124



MET'MAP, your aeronautical weather chart ! - Copyright ORBIFLY December 2007 - Disclaimer

ORBIFLY MET'MAP TEAM :

Programming & Development : Alexandra Zaïnal
Original concept : Baudouin d'Aumeries
Technical & hardware support : Manuel Goepfert
Assistance : Marc-Olivier Méhu




SOURCES & CREDITS :

   NOAA